sensor_id;sensor_type;location;lat;lon;timestamp;P1;durP1;ratioP1;P2;durP2;ratioP2
10687;SDS011;5392;42.688;23.298;2022-07-30T00:00:10;0.77;;;0.77;;
10687;SDS011;5392;42.688;23.298;2022-07-30T00:02:50;0.60;;;0.60;;
10687;SDS011;5392;42.688;23.298;2022-07-30T00:05:16;0.57;;;0.57;;
10687;SDS011;5392;42.688;23.298;2022-07-30T00:07:43;0.65;;;0.65;;
10687;SDS011;5392;42.688;23.298;2022-07-30T00:10:10;0.60;;;0.60;;
10687;SDS011;5392;42.688;23.298;2022-07-30T00:12:36;1.00;;;0.60;;
10687;SDS011;5392;42.688;23.298;2022-07-30T00:15:03;1.13;;;0.60;;
10687;SDS011;5392;42.688;23.298;2022-07-30T00:17:30;1.20;;;0.60;;
10687;SDS011;5392;42.688;23.298;2022-07-30T00:19:57;0.70;;;0.70;;
10687;SDS011;5392;42.688;23.298;2022-07-30T00:22:24;0.93;;;0.73;;
10687;SDS011;5392;42.688;23.298;2022-07-30T00:24:51;0.80;;;0.80;;
10687;SDS011;5392;42.688;23.298;2022-07-30T00:27:17;2.05;;;0.70;;
10687;SDS011;5392;42.688;23.298;2022-07-30T00:29:44;1.00;;;0.60;;
10687;SDS011;5392;42.688;23.298;2022-07-30T00:32:11;0.60;;;0.60;;
10687;SDS011;5392;42.688;23.298;2022-07-30T00:34:38;0.68;;;0.68;;
10687;SDS011;5392;42.688;23.298;2022-07-30T00:37:04;0.50;;;0.50;;
10687;SDS011;5392;42.688;23.298;2022-07-30T00:39:31;0.60;;;0.60;;
10687;SDS011;5392;42.688;23.298;2022-07-30T00:41:58;1.10;;;0.70;;
10687;SDS011;5392;42.688;23.298;2022-07-30T00:44:27;1.05;;;0.60;;
10687;SDS011;5392;42.688;23.298;2022-07-30T00:46:55;1.75;;;0.70;;
10687;SDS011;5392;42.688;23.298;2022-07-30T00:49:22;2.22;;;0.80;;
10687;SDS011;5392;42.688;23.298;2022-07-30T00:51:50;1.35;;;0.75;;
10687;SDS011;5392;42.688;23.298;2022-07-30T00:54:17;0.80;;;0.80;;
10687;SDS011;5392;42.688;23.298;2022-07-30T00:56:44;1.98;;;0.65;;
10687;SDS011;5392;42.688;23.298;2022-07-30T00:59:11;1.33;;;0.70;;
10687;SDS011;5392;42.688;23.298;2022-07-30T01:01:38;1.40;;;0.80;;
10687;SDS011;5392;42.688;23.298;2022-07-30T01:04:05;1.38;;;0.80;;
10687;SDS011;5392;42.688;23.298;2022-07-30T01:06:37;1.25;;;0.80;;
10687;SDS011;5392;42.688;23.298;2022-07-30T01:09:05;0.75;;;0.70;;
10687;SDS011;5392;42.688;23.298;2022-07-30T01:11:34;3.72;;;0.80;;
10687;SDS011;5392;42.688;23.298;2022-07-30T01:14:04;0.70;;;0.70;;
10687;SDS011;5392;42.688;23.298;2022-07-30T01:16:32;0.82;;;0.70;;
10687;SDS011;5392;42.688;23.298;2022-07-30T01:19:03;3.60;;;0.80;;
10687;SDS011;5392;42.688;23.298;2022-07-30T01:21:53;0.95;;;0.70;;
10687;SDS011;5392;42.688;23.298;2022-07-30T01:24:46;1.45;;;0.80;;
10687;SDS011;5392;42.688;23.298;2022-07-30T01:27:22;0.88;;;0.80;;
10687;SDS011;5392;42.688;23.298;2022-07-30T01:29:50;0.80;;;0.80;;
10687;SDS011;5392;42.688;23.298;2022-07-30T01:32:19;0.85;;;0.70;;
10687;SDS011;5392;42.688;23.298;2022-07-30T01:34:49;0.90;;;0.90;;
10687;SDS011;5392;42.688;23.298;2022-07-30T01:37:17;0.82;;;0.73;;
10687;SDS011;5392;42.688;23.298;2022-07-30T01:39:46;2.65;;;0.88;;
10687;SDS011;5392;42.688;23.298;2022-07-30T01:42:15;1.48;;;0.90;;
10687;SDS011;5392;42.688;23.298;2022-07-30T01:44:44;0.80;;;0.80;;
10687;SDS011;5392;42.688;23.298;2022-07-30T01:47:13;0.93;;;0.93;;
10687;SDS011;5392;42.688;23.298;2022-07-30T01:49:43;2.38;;;1.10;;
10687;SDS011;5392;42.688;23.298;2022-07-30T01:52:12;2.22;;;1.00;;
10687;SDS011;5392;42.688;23.298;2022-07-30T01:54:43;1.83;;;1.08;;
10687;SDS011;5392;42.688;23.298;2022-07-30T01:57:12;1.15;;;1.08;;
10687;SDS011;5392;42.688;23.298;2022-07-30T01:59:41;1.15;;;1.15;;
10687;SDS011;5392;42.688;23.298;2022-07-30T02:02:11;1.15;;;1.15;;
10687;SDS011;5392;42.688;23.298;2022-07-30T02:04:43;1.02;;;1.02;;
10687;SDS011;5392;42.688;23.298;2022-07-30T02:07:12;1.17;;;1.17;;
10687;SDS011;5392;42.688;23.298;2022-07-30T02:09:50;1.10;;;1.00;;
10687;SDS011;5392;42.688;23.298;2022-07-30T02:12:23;2.95;;;1.00;;
10687;SDS011;5392;42.688;23.298;2022-07-30T02:18:02;1.77;;;1.67;;
10687;SDS011;5392;42.688;23.298;2022-07-30T02:20:33;2.88;;;2.00;;
10687;SDS011;5392;42.688;23.298;2022-07-30T02:23:02;2.72;;;1.73;;
10687;SDS011;5392;42.688;23.298;2022-07-30T02:25:33;2.17;;;2.08;;
10687;SDS011;5392;42.688;23.298;2022-07-30T02:28:05;2.17;;;2.08;;
10687;SDS011;5392;42.688;23.298;2022-07-30T02:30:35;2.10;;;2.10;;
10687;SDS011;5392;42.688;23.298;2022-07-30T02:33:06;1.60;;;1.50;;
10687;SDS011;5392;42.688;23.298;2022-07-30T02:35:38;1.23;;;1.00;;
10687;SDS011;5392;42.688;23.298;2022-07-30T02:38:06;1.52;;;1.02;;
10687;SDS011;5392;42.688;23.298;2022-07-30T02:40:35;1.60;;;0.95;;
10687;SDS011;5392;42.688;23.298;2022-07-30T02:43:07;3.35;;;1.10;;
10687;SDS011;5392;42.688;23.298;2022-07-30T02:45:34;2.25;;;1.23;;
10687;SDS011;5392;42.688;23.298;2022-07-30T02:48:03;1.25;;;1.10;;
10687;SDS011;5392;42.688;23.298;2022-07-30T02:50:33;2.03;;;1.42;;
10687;SDS011;5392;42.688;23.298;2022-07-30T02:53:02;2.38;;;1.40;;
10687;SDS011;5392;42.688;23.298;2022-07-30T02:55:32;2.28;;;1.20;;
10687;SDS011;5392;42.688;23.298;2022-07-30T02:58:02;1.88;;;1.65;;
10687;SDS011;5392;42.688;23.298;2022-07-30T03:00:31;2.00;;;1.58;;
10687;SDS011;5392;42.688;23.298;2022-07-30T03:03:00;2.63;;;2.15;;
10687;SDS011;5392;42.688;23.298;2022-07-30T03:05:30;2.88;;;2.67;;
10687;SDS011;5392;42.688;23.298;2022-07-30T03:07:58;2.05;;;1.95;;
10687;SDS011;5392;42.688;23.298;2022-07-30T03:10:26;3.80;;;1.67;;
10687;SDS011;5392;42.688;23.298;2022-07-30T03:12:54;3.67;;;3.00;;
10687;SDS011;5392;42.688;23.298;2022-07-30T03:15:21;2.55;;;2.35;;
10687;SDS011;5392;42.688;23.298;2022-07-30T03:17:49;4.30;;;3.03;;
10687;SDS011;5392;42.688;23.298;2022-07-30T03:20:22;4.03;;;3.30;;
10687;SDS011;5392;42.688;23.298;2022-07-30T03:22:52;3.72;;;3.53;;
10687;SDS011;5392;42.688;23.298;2022-07-30T03:25:23;2.70;;;2.50;;
10687;SDS011;5392;42.688;23.298;2022-07-30T03:27:53;3.25;;;2.85;;
10687;SDS011;5392;42.688;23.298;2022-07-30T03:30:23;3.50;;;3.30;;
10687;SDS011;5392;42.688;23.298;2022-07-30T03:32:52;4.43;;;4.03;;
10687;SDS011;5392;42.688;23.298;2022-07-30T03:35:19;5.05;;;4.38;;
10687;SDS011;5392;42.688;23.298;2022-07-30T03:37:52;4.15;;;3.90;;
10687;SDS011;5392;42.688;23.298;2022-07-30T03:40:19;4.78;;;4.07;;
10687;SDS011;5392;42.688;23.298;2022-07-30T03:42:48;6.13;;;5.35;;
10687;SDS011;5392;42.688;23.298;2022-07-30T03:45:16;10.25;;;5.13;;
10687;SDS011;5392;42.688;23.298;2022-07-30T03:47:44;6.05;;;5.50;;
10687;SDS011;5392;42.688;23.298;2022-07-30T03:50:12;6.28;;;5.45;;
10687;SDS011;5392;42.688;23.298;2022-07-30T03:52:40;4.93;;;4.28;;
10687;SDS011;5392;42.688;23.298;2022-07-30T03:55:08;4.63;;;3.00;;
10687;SDS011;5392;42.688;23.298;2022-07-30T03:57:36;3.15;;;2.95;;
10687;SDS011;5392;42.688;23.298;2022-07-30T04:00:04;3.72;;;3.45;;
10687;SDS011;5392;42.688;23.298;2022-07-30T04:02:40;5.68;;;3.45;;
10687;SDS011;5392;42.688;23.298;2022-07-30T04:05:08;3.53;;;3.20;;
10687;SDS011;5392;42.688;23.298;2022-07-30T04:07:35;3.58;;;2.88;;
10687;SDS011;5392;42.688;23.298;2022-07-30T04:10:10;3.38;;;3.00;;
10687;SDS011;5392;42.688;23.298;2022-07-30T04:12:37;6.28;;;3.15;;
10687;SDS011;5392;42.688;23.298;2022-07-30T04:15:04;4.60;;;2.67;;
10687;SDS011;5392;42.688;23.298;2022-07-30T04:17:52;3.08;;;2.03;;
10687;SDS011;5392;42.688;23.298;2022-07-30T04:20:25;3.42;;;2.58;;
10687;SDS011;5392;42.688;23.298;2022-07-30T04:22:56;3.17;;;2.80;;
10687;SDS011;5392;42.688;23.298;2022-07-30T04:25:24;4.75;;;3.17;;
10687;SDS011;5392;42.688;23.298;2022-07-30T04:27:51;3.63;;;2.47;;
10687;SDS011;5392;42.688;23.298;2022-07-30T04:30:29;7.43;;;2.50;;
10687;SDS011;5392;42.688;23.298;2022-07-30T04:32:56;4.57;;;2.55;;
10687;SDS011;5392;42.688;23.298;2022-07-30T04:35:26;2.20;;;2.10;;
10687;SDS011;5392;42.688;23.298;2022-07-30T04:38:15;3.67;;;1.90;;
10687;SDS011;5392;42.688;23.298;2022-07-30T04:40:42;6.45;;;2.58;;
10687;SDS011;5392;42.688;23.298;2022-07-30T04:43:09;2.92;;;1.77;;
10687;SDS011;5392;42.688;23.298;2022-07-30T04:45:36;2.35;;;1.85;;
10687;SDS011;5392;42.688;23.298;2022-07-30T04:48:05;3.85;;;2.50;;
10687;SDS011;5392;42.688;23.298;2022-07-30T04:50:32;3.38;;;3.08;;
10687;SDS011;5392;42.688;23.298;2022-07-30T04:53:01;2.95;;;2.03;;
10687;SDS011;5392;42.688;23.298;2022-07-30T04:55:28;2.95;;;2.40;;
10687;SDS011;5392;42.688;23.298;2022-07-30T04:57:57;4.40;;;2.65;;
10687;SDS011;5392;42.688;23.298;2022-07-30T05:00:27;3.03;;;2.17;;
10687;SDS011;5392;42.688;23.298;2022-07-30T05:02:57;2.33;;;2.22;;
10687;SDS011;5392;42.688;23.298;2022-07-30T05:05:27;2.33;;;2.22;;
10687;SDS011;5392;42.688;23.298;2022-07-30T05:07:57;3.35;;;2.05;;
10687;SDS011;5392;42.688;23.298;2022-07-30T05:10:26;2.70;;;2.53;;
10687;SDS011;5392;42.688;23.298;2022-07-30T05:12:53;3.42;;;1.98;;
10687;SDS011;5392;42.688;23.298;2022-07-30T05:15:20;3.28;;;2.20;;
10687;SDS011;5392;42.688;23.298;2022-07-30T05:17:46;5.53;;;2.70;;
10687;SDS011;5392;42.688;23.298;2022-07-30T05:20:14;2.35;;;2.25;;
10687;SDS011;5392;42.688;23.298;2022-07-30T05:22:41;3.75;;;2.17;;
10687;SDS011;5392;42.688;23.298;2022-07-30T05:25:16;3.00;;;2.60;;
10687;SDS011;5392;42.688;23.298;2022-07-30T05:27:43;2.10;;;1.95;;
10687;SDS011;5392;42.688;23.298;2022-07-30T05:30:10;4.18;;;2.08;;
10687;SDS011;5392;42.688;23.298;2022-07-30T05:32:38;3.97;;;2.15;;
10687;SDS011;5392;42.688;23.298;2022-07-30T05:35:04;4.78;;;1.92;;
10687;SDS011;5392;42.688;23.298;2022-07-30T05:37:31;2.40;;;2.20;;
10687;SDS011;5392;42.688;23.298;2022-07-30T05:39:58;3.97;;;2.33;;
10687;SDS011;5392;42.688;23.298;2022-07-30T05:42:28;4.28;;;3.65;;
10687;SDS011;5392;42.688;23.298;2022-07-30T05:44:55;4.80;;;1.45;;
10687;SDS011;5392;42.688;23.298;2022-07-30T05:47:22;5.03;;;2.20;;
10687;SDS011;5392;42.688;23.298;2022-07-30T05:49:49;2.67;;;1.90;;
10687;SDS011;5392;42.688;23.298;2022-07-30T05:52:16;5.90;;;3.05;;
10687;SDS011;5392;42.688;23.298;2022-07-30T05:54:43;1.83;;;1.63;;
10687;SDS011;5392;42.688;23.298;2022-07-30T05:57:10;2.28;;;2.08;;
10687;SDS011;5392;42.688;23.298;2022-07-30T05:59:37;1.90;;;1.77;;
10687;SDS011;5392;42.688;23.298;2022-07-30T06:02:04;2.22;;;1.40;;
10687;SDS011;5392;42.688;23.298;2022-07-30T06:04:31;2.22;;;2.08;;
10687;SDS011;5392;42.688;23.298;2022-07-30T06:07:00;4.07;;;1.40;;
10687;SDS011;5392;42.688;23.298;2022-07-30T06:09:28;5.10;;;1.88;;
10687;SDS011;5392;42.688;23.298;2022-07-30T06:12:02;1.63;;;1.25;;
10687;SDS011;5392;42.688;23.298;2022-07-30T06:14:29;3.67;;;1.40;;
10687;SDS011;5392;42.688;23.298;2022-07-30T06:16:57;7.53;;;1.48;;
10687;SDS011;5392;42.688;23.298;2022-07-30T06:19:24;1.13;;;1.02;;
10687;SDS011;5392;42.688;23.298;2022-07-30T06:21:51;3.17;;;1.35;;
10687;SDS011;5392;42.688;23.298;2022-07-30T06:24:32;1.67;;;1.10;;
10687;SDS011;5392;42.688;23.298;2022-07-30T06:26:59;2.15;;;1.20;;
10687;SDS011;5392;42.688;23.298;2022-07-30T06:29:26;1.00;;;1.00;;
10687;SDS011;5392;42.688;23.298;2022-07-30T06:31:52;1.27;;;1.10;;
10687;SDS011;5392;42.688;23.298;2022-07-30T06:34:19;3.47;;;1.50;;
10687;SDS011;5392;42.688;23.298;2022-07-30T06:36:46;1.58;;;1.40;;
10687;SDS011;5392;42.688;23.298;2022-07-30T06:39:13;1.42;;;1.33;;
10687;SDS011;5392;42.688;23.298;2022-07-30T06:42:00;4.35;;;1.65;;
10687;SDS011;5392;42.688;23.298;2022-07-30T06:44:27;3.95;;;1.27;;
10687;SDS011;5392;42.688;23.298;2022-07-30T06:46:54;1.00;;;1.00;;
10687;SDS011;5392;42.688;23.298;2022-07-30T06:49:20;1.70;;;1.30;;
10687;SDS011;5392;42.688;23.298;2022-07-30T06:51:48;4.18;;;1.27;;
10687;SDS011;5392;42.688;23.298;2022-07-30T06:54:14;1.95;;;1.30;;
10687;SDS011;5392;42.688;23.298;2022-07-30T06:56:41;1.15;;;1.05;;
10687;SDS011;5392;42.688;23.298;2022-07-30T06:59:08;3.13;;;1.30;;
10687;SDS011;5392;42.688;23.298;2022-07-30T07:01:35;1.55;;;1.45;;
10687;SDS011;5392;42.688;23.298;2022-07-30T07:04:02;2.25;;;1.27;;
10687;SDS011;5392;42.688;23.298;2022-07-30T07:06:29;4.15;;;1.35;;
10687;SDS011;5392;42.688;23.298;2022-07-30T07:08:56;2.40;;;1.20;;
10687;SDS011;5392;42.688;23.298;2022-07-30T07:11:23;5.35;;;1.50;;
10687;SDS011;5392;42.688;23.298;2022-07-30T07:13:50;1.30;;;1.30;;
10687;SDS011;5392;42.688;23.298;2022-07-30T07:16:16;2.47;;;1.20;;
10687;SDS011;5392;42.688;23.298;2022-07-30T07:18:47;1.67;;;1.10;;
10687;SDS011;5392;42.688;23.298;2022-07-30T07:21:14;2.05;;;1.20;;
10687;SDS011;5392;42.688;23.298;2022-07-30T07:23:41;1.33;;;1.23;;
10687;SDS011;5392;42.688;23.298;2022-07-30T07:26:08;1.33;;;1.33;;
10687;SDS011;5392;42.688;23.298;2022-07-30T07:28:35;1.58;;;1.48;;
10687;SDS011;5392;42.688;23.298;2022-07-30T07:31:02;1.70;;;1.60;;
10687;SDS011;5392;42.688;23.298;2022-07-30T07:33:29;2.97;;;1.83;;
10687;SDS011;5392;42.688;23.298;2022-07-30T07:35:56;1.08;;;1.08;;
10687;SDS011;5392;42.688;23.298;2022-07-30T07:38:22;4.82;;;1.80;;
10687;SDS011;5392;42.688;23.298;2022-07-30T07:40:49;3.15;;;1.70;;
10687;SDS011;5392;42.688;23.298;2022-07-30T07:43:16;1.98;;;1.27;;
10687;SDS011;5392;42.688;23.298;2022-07-30T07:45:43;1.80;;;1.20;;
10687;SDS011;5392;42.688;23.298;2022-07-30T07:48:11;2.47;;;1.30;;
10687;SDS011;5392;42.688;23.298;2022-07-30T07:50:37;2.00;;;1.10;;
10687;SDS011;5392;42.688;23.298;2022-07-30T07:53:04;4.13;;;1.25;;
10687;SDS011;5392;42.688;23.298;2022-07-30T07:55:31;1.40;;;1.30;;
10687;SDS011;5392;42.688;23.298;2022-07-30T07:57:59;1.73;;;1.73;;
10687;SDS011;5392;42.688;23.298;2022-07-30T08:00:26;1.52;;;1.42;;
10687;SDS011;5392;42.688;23.298;2022-07-30T08:02:52;2.03;;;1.25;;
10687;SDS011;5392;42.688;23.298;2022-07-30T08:05:19;1.38;;;1.27;;
10687;SDS011;5392;42.688;23.298;2022-07-30T08:07:46;1.20;;;1.20;;
10687;SDS011;5392;42.688;23.298;2022-07-30T08:10:13;1.40;;;1.27;;
10687;SDS011;5392;42.688;23.298;2022-07-30T08:12:41;2.33;;;1.23;;
10687;SDS011;5392;42.688;23.298;2022-07-30T08:15:09;2.75;;;1.67;;
10687;SDS011;5392;42.688;23.298;2022-07-30T08:17:42;3.67;;;1.45;;
10687;SDS011;5392;42.688;23.298;2022-07-30T08:20:10;2.00;;;1.42;;
10687;SDS011;5392;42.688;23.298;2022-07-30T08:22:38;4.78;;;1.33;;
10687;SDS011;5392;42.688;23.298;2022-07-30T08:25:06;1.23;;;1.23;;
10687;SDS011;5392;42.688;23.298;2022-07-30T08:27:34;2.30;;;1.13;;
10687;SDS011;5392;42.688;23.298;2022-07-30T08:30:04;1.52;;;1.42;;
10687;SDS011;5392;42.688;23.298;2022-07-30T08:32:31;1.67;;;1.23;;
10687;SDS011;5392;42.688;23.298;2022-07-30T08:34:58;1.67;;;1.08;;
10687;SDS011;5392;42.688;23.298;2022-07-30T08:37:25;1.20;;;1.20;;
10687;SDS011;5392;42.688;23.298;2022-07-30T08:39:52;1.67;;;1.33;;
10687;SDS011;5392;42.688;23.298;2022-07-30T08:42:18;5.57;;;1.70;;
10687;SDS011;5392;42.688;23.298;2022-07-30T08:44:45;2.25;;;1.38;;
10687;SDS011;5392;42.688;23.298;2022-07-30T08:47:15;1.55;;;1.45;;
10687;SDS011;5392;42.688;23.298;2022-07-30T08:49:45;1.48;;;1.30;;
10687;SDS011;5392;42.688;23.298;2022-07-30T08:52:11;2.55;;;1.50;;
10687;SDS011;5392;42.688;23.298;2022-07-30T08:54:38;1.60;;;1.50;;
10687;SDS011;5392;42.688;23.298;2022-07-30T08:57:06;1.30;;;1.30;;
10687;SDS011;5392;42.688;23.298;2022-07-30T08:59:33;10.07;;;2.67;;
10687;SDS011;5392;42.688;23.298;2022-07-30T09:02:21;2.95;;;1.45;;
10687;SDS011;5392;42.688;23.298;2022-07-30T09:04:53;1.40;;;1.30;;
10687;SDS011;5392;42.688;23.298;2022-07-30T09:07:19;2.53;;;1.20;;
10687;SDS011;5392;42.688;23.298;2022-07-30T09:09:46;2.42;;;1.38;;
10687;SDS011;5392;42.688;23.298;2022-07-30T09:17:49;1.30;;;1.17;;
10687;SDS011;5392;42.688;23.298;2022-07-30T09:20:24;2.25;;;1.63;;
10687;SDS011;5392;42.688;23.298;2022-07-30T09:22:57;3.53;;;1.38;;
10687;SDS011;5392;42.688;23.298;2022-07-30T09:25:42;1.40;;;1.30;;
10687;SDS011;5392;42.688;23.298;2022-07-30T09:28:13;1.33;;;1.23;;
10687;SDS011;5392;42.688;23.298;2022-07-30T09:30:42;1.40;;;1.40;;
10687;SDS011;5392;42.688;23.298;2022-07-30T09:33:12;1.23;;;1.23;;
10687;SDS011;5392;42.688;23.298;2022-07-30T09:35:40;3.50;;;1.40;;
10687;SDS011;5392;42.688;23.298;2022-07-30T09:38:08;1.50;;;1.40;;
10687;SDS011;5392;42.688;23.298;2022-07-30T09:40:35;2.78;;;1.75;;
10687;SDS011;5392;42.688;23.298;2022-07-30T09:43:08;1.83;;;1.73;;
10687;SDS011;5392;42.688;23.298;2022-07-30T09:45:37;2.40;;;1.63;;
10687;SDS011;5392;42.688;23.298;2022-07-30T09:48:26;1.80;;;1.70;;
10687;SDS011;5392;42.688;23.298;2022-07-30T09:50:53;2.45;;;1.77;;
10687;SDS011;5392;42.688;23.298;2022-07-30T09:53:22;2.50;;;1.50;;
10687;SDS011;5392;42.688;23.298;2022-07-30T09:55:49;2.53;;;1.60;;
10687;SDS011;5392;42.688;23.298;2022-07-30T09:58:16;1.48;;;1.38;;
10687;SDS011;5392;42.688;23.298;2022-07-30T10:00:56;2.13;;;1.70;;
10687;SDS011;5392;42.688;23.298;2022-07-30T10:03:25;4.22;;;1.98;;
10687;SDS011;5392;42.688;23.298;2022-07-30T10:06:00;2.08;;;1.60;;
10687;SDS011;5392;42.688;23.298;2022-07-30T10:08:38;1.30;;;1.30;;
10687;SDS011;5392;42.688;23.298;2022-07-30T10:11:06;2.60;;;1.35;;
10687;SDS011;5392;42.688;23.298;2022-07-30T10:13:36;1.85;;;1.52;;
10687;SDS011;5392;42.688;23.298;2022-07-30T10:16:06;1.90;;;1.65;;
10687;SDS011;5392;42.688;23.298;2022-07-30T10:18:35;1.45;;;1.45;;
10687;SDS011;5392;42.688;23.298;2022-07-30T10:21:03;1.92;;;1.83;;
10687;SDS011;5392;42.688;23.298;2022-07-30T10:23:31;1.65;;;1.55;;
10687;SDS011;5392;42.688;23.298;2022-07-30T10:25:58;2.42;;;2.33;;
10687;SDS011;5392;42.688;23.298;2022-07-30T10:28:29;2.03;;;2.03;;
10687;SDS011;5392;42.688;23.298;2022-07-30T10:31:03;2.70;;;2.60;;
10687;SDS011;5392;42.688;23.298;2022-07-30T10:33:50;2.50;;;2.40;;
10687;SDS011;5392;42.688;23.298;2022-07-30T10:36:19;3.50;;;2.10;;
10687;SDS011;5392;42.688;23.298;2022-07-30T10:38:49;2.45;;;2.25;;
10687;SDS011;5392;42.688;23.298;2022-07-30T10:41:25;2.97;;;2.80;;
10687;SDS011;5392;42.688;23.298;2022-07-30T10:47:01;4.40;;;2.22;;
10687;SDS011;5392;42.688;23.298;2022-07-30T10:49:33;3.42;;;2.10;;
10687;SDS011;5392;42.688;23.298;2022-07-30T10:52:08;2.17;;;2.08;;
10687;SDS011;5392;42.688;23.298;2022-07-30T10:54:39;2.50;;;2.40;;
10687;SDS011;5392;42.688;23.298;2022-07-30T11:02:29;2.35;;;2.25;;
10687;SDS011;5392;42.688;23.298;2022-07-30T11:07:44;2.75;;;2.65;;
10687;SDS011;5392;42.688;23.298;2022-07-30T11:13:06;2.20;;;2.20;;
10687;SDS011;5392;42.688;23.298;2022-07-30T11:15:56;3.35;;;3.05;;
10687;SDS011;5392;42.688;23.298;2022-07-30T11:18:25;3.15;;;3.00;;
10687;SDS011;5392;42.688;23.298;2022-07-30T11:23:39;3.00;;;2.80;;
10687;SDS011;5392;42.688;23.298;2022-07-30T11:26:06;3.80;;;3.60;;
10687;SDS011;5392;42.688;23.298;2022-07-30T11:28:43;2.58;;;2.45;;
10687;SDS011;5392;42.688;23.298;2022-07-30T11:31:28;2.80;;;2.70;;
10687;SDS011;5392;42.688;23.298;2022-07-30T11:42:37;2.90;;;2.75;;
10687;SDS011;5392;42.688;23.298;2022-07-30T11:45:25;3.80;;;3.67;;
10687;SDS011;5392;42.688;23.298;2022-07-30T11:47:55;3.65;;;3.17;;
10687;SDS011;5392;42.688;23.298;2022-07-30T11:50:24;3.60;;;3.40;;
10687;SDS011;5392;42.688;23.298;2022-07-30T11:52:51;3.40;;;3.15;;
10687;SDS011;5392;42.688;23.298;2022-07-30T11:55:21;3.38;;;3.20;;
10687;SDS011;5392;42.688;23.298;2022-07-30T11:57:49;3.33;;;3.20;;
10687;SDS011;5392;42.688;23.298;2022-07-30T12:00:17;3.15;;;2.95;;
10687;SDS011;5392;42.688;23.298;2022-07-30T12:02:44;3.15;;;3.05;;
10687;SDS011;5392;42.688;23.298;2022-07-30T12:05:11;3.80;;;3.63;;
10687;SDS011;5392;42.688;23.298;2022-07-30T12:07:38;3.40;;;3.20;;
10687;SDS011;5392;42.688;23.298;2022-07-30T12:10:15;3.72;;;3.53;;
10687;SDS011;5392;42.688;23.298;2022-07-30T12:12:52;3.33;;;3.22;;
10687;SDS011;5392;42.688;23.298;2022-07-30T12:15:34;3.75;;;3.45;;
10687;SDS011;5392;42.688;23.298;2022-07-30T12:18:02;3.30;;;3.20;;
10687;SDS011;5392;42.688;23.298;2022-07-30T12:20:56;3.30;;;3.30;;
10687;SDS011;5392;42.688;23.298;2022-07-30T12:23:25;3.28;;;3.17;;
10687;SDS011;5392;42.688;23.298;2022-07-30T12:25:53;3.47;;;3.17;;
10687;SDS011;5392;42.688;23.298;2022-07-30T12:28:23;9.90;;;4.45;;
10687;SDS011;5392;42.688;23.298;2022-07-30T12:30:52;3.58;;;3.05;;
10687;SDS011;5392;42.688;23.298;2022-07-30T12:33:20;3.33;;;3.17;;
10687;SDS011;5392;42.688;23.298;2022-07-30T12:35:49;3.17;;;3.13;;
10687;SDS011;5392;42.688;23.298;2022-07-30T12:38:21;3.08;;;2.95;;
10687;SDS011;5392;42.688;23.298;2022-07-30T12:40:53;3.50;;;3.30;;
10687;SDS011;5392;42.688;23.298;2022-07-30T12:46:17;4.35;;;3.33;;
10687;SDS011;5392;42.688;23.298;2022-07-30T12:51:15;3.38;;;3.28;;
10687;SDS011;5392;42.688;23.298;2022-07-30T12:53:44;3.45;;;3.15;;
10687;SDS011;5392;42.688;23.298;2022-07-30T12:56:15;3.08;;;2.95;;
10687;SDS011;5392;42.688;23.298;2022-07-30T12:58:43;3.08;;;2.88;;
10687;SDS011;5392;42.688;23.298;2022-07-30T13:01:11;3.50;;;3.40;;
10687;SDS011;5392;42.688;23.298;2022-07-30T13:03:38;3.38;;;3.20;;
10687;SDS011;5392;42.688;23.298;2022-07-30T13:06:12;3.65;;;3.50;;
10687;SDS011;5392;42.688;23.298;2022-07-30T13:08:55;4.55;;;3.75;;
10687;SDS011;5392;42.688;23.298;2022-07-30T13:11:24;3.97;;;3.70;;
10687;SDS011;5392;42.688;23.298;2022-07-30T13:14:14;4.13;;;3.80;;
10687;SDS011;5392;42.688;23.298;2022-07-30T13:16:42;3.88;;;3.60;;
10687;SDS011;5392;42.688;23.298;2022-07-30T13:19:10;3.67;;;3.35;;
10687;SDS011;5392;42.688;23.298;2022-07-30T13:21:38;3.80;;;3.70;;
10687;SDS011;5392;42.688;23.298;2022-07-30T13:24:15;3.60;;;3.50;;
10687;SDS011;5392;42.688;23.298;2022-07-30T13:26:43;3.80;;;3.40;;
10687;SDS011;5392;42.688;23.298;2022-07-30T13:29:11;4.05;;;3.75;;
10687;SDS011;5392;42.688;23.298;2022-07-30T13:31:39;4.30;;;3.90;;
10687;SDS011;5392;42.688;23.298;2022-07-30T13:34:08;4.03;;;3.65;;
10687;SDS011;5392;42.688;23.298;2022-07-30T13:36:35;5.28;;;3.88;;
10687;SDS011;5392;42.688;23.298;2022-07-30T13:39:02;3.80;;;3.70;;
10687;SDS011;5392;42.688;23.298;2022-07-30T13:41:29;4.00;;;3.63;;
10687;SDS011;5392;42.688;23.298;2022-07-30T13:43:55;4.35;;;4.00;;
10687;SDS011;5392;42.688;23.298;2022-07-30T13:46:22;4.55;;;4.18;;
10687;SDS011;5392;42.688;23.298;2022-07-30T13:48:49;4.60;;;4.32;;
10687;SDS011;5392;42.688;23.298;2022-07-30T13:51:16;4.00;;;3.78;;
10687;SDS011;5392;42.688;23.298;2022-07-30T13:53:42;3.97;;;3.78;;
10687;SDS011;5392;42.688;23.298;2022-07-30T13:56:09;3.47;;;3.33;;
10687;SDS011;5392;42.688;23.298;2022-07-30T13:58:38;3.58;;;3.20;;
10687;SDS011;5392;42.688;23.298;2022-07-30T14:01:05;3.78;;;3.78;;
10687;SDS011;5392;42.688;23.298;2022-07-30T14:03:32;4.40;;;4.03;;
10687;SDS011;5392;42.688;23.298;2022-07-30T14:06:00;3.60;;;3.50;;
10687;SDS011;5392;42.688;23.298;2022-07-30T14:08:36;3.70;;;3.53;;
10687;SDS011;5392;42.688;23.298;2022-07-30T14:11:04;3.95;;;3.75;;
10687;SDS011;5392;42.688;23.298;2022-07-30T14:13:30;3.75;;;3.40;;
10687;SDS011;5392;42.688;23.298;2022-07-30T14:15:57;3.85;;;3.65;;
10687;SDS011;5392;42.688;23.298;2022-07-30T14:18:24;3.85;;;3.65;;
10687;SDS011;5392;42.688;23.298;2022-07-30T14:20:50;3.80;;;3.60;;
10687;SDS011;5392;42.688;23.298;2022-07-30T14:23:19;2.78;;;2.78;;
10687;SDS011;5392;42.688;23.298;2022-07-30T14:25:46;3.60;;;3.50;;
10687;SDS011;5392;42.688;23.298;2022-07-30T14:28:12;4.85;;;3.70;;
10687;SDS011;5392;42.688;23.298;2022-07-30T14:30:39;3.30;;;3.20;;
10687;SDS011;5392;42.688;23.298;2022-07-30T14:33:07;3.35;;;3.17;;
10687;SDS011;5392;42.688;23.298;2022-07-30T14:35:34;4.13;;;3.72;;
10687;SDS011;5392;42.688;23.298;2022-07-30T14:38:00;7.57;;;4.18;;
10687;SDS011;5392;42.688;23.298;2022-07-30T14:40:28;3.88;;;3.67;;
10687;SDS011;5392;42.688;23.298;2022-07-30T14:42:55;4.03;;;3.25;;
10687;SDS011;5392;42.688;23.298;2022-07-30T14:45:23;2.63;;;2.53;;
10687;SDS011;5392;42.688;23.298;2022-07-30T14:47:50;2.78;;;2.60;;
10687;SDS011;5392;42.688;23.298;2022-07-30T14:50:17;3.05;;;2.88;;
10687;SDS011;5392;42.688;23.298;2022-07-30T14:52:44;3.58;;;2.47;;
10687;SDS011;5392;42.688;23.298;2022-07-30T14:55:13;4.22;;;3.72;;
10687;SDS011;5392;42.688;23.298;2022-07-30T14:57:39;2.90;;;2.70;;
10687;SDS011;5392;42.688;23.298;2022-07-30T15:00:08;2.75;;;2.65;;
10687;SDS011;5392;42.688;23.298;2022-07-30T15:02:37;3.78;;;3.47;;
10687;SDS011;5392;42.688;23.298;2022-07-30T15:05:04;4.50;;;4.40;;
10687;SDS011;5392;42.688;23.298;2022-07-30T15:07:31;5.30;;;4.95;;
10687;SDS011;5392;42.688;23.298;2022-07-30T15:10:00;4.82;;;4.53;;
10687;SDS011;5392;42.688;23.298;2022-07-30T15:12:27;5.75;;;4.90;;
10687;SDS011;5392;42.688;23.298;2022-07-30T15:14:54;9.25;;;5.55;;
10687;SDS011;5392;42.688;23.298;2022-07-30T15:17:21;5.35;;;4.85;;
10687;SDS011;5392;42.688;23.298;2022-07-30T15:19:48;5.70;;;5.38;;
10687;SDS011;5392;42.688;23.298;2022-07-30T15:22:17;6.00;;;5.80;;
10687;SDS011;5392;42.688;23.298;2022-07-30T15:24:44;7.55;;;5.07;;
10687;SDS011;5392;42.688;23.298;2022-07-30T15:27:11;5.13;;;4.82;;
10687;SDS011;5392;42.688;23.298;2022-07-30T15:29:37;4.80;;;4.60;;
10687;SDS011;5392;42.688;23.298;2022-07-30T15:32:04;3.67;;;3.58;;
10687;SDS011;5392;42.688;23.298;2022-07-30T15:34:32;4.20;;;4.00;;
10687;SDS011;5392;42.688;23.298;2022-07-30T15:37:00;4.25;;;4.10;;
10687;SDS011;5392;42.688;23.298;2022-07-30T15:39:27;3.90;;;3.80;;